sensor_id;sensor_type;location;lat;lon;timestamp;temperature;humidity
33994;DHT22;20673;48.980;8.138;2022-09-19T00:01:45;11.30;99.90
33994;DHT22;20673;48.980;8.138;2022-09-19T00:04:15;11.30;99.90
33994;DHT22;20673;48.980;8.138;2022-09-19T00:06:44;11.30;99.90
33994;DHT22;20673;48.980;8.138;2022-09-19T00:09:15;11.30;99.90
33994;DHT22;20673;48.980;8.138;2022-09-19T00:11:45;11.20;99.90
33994;DHT22;20673;48.980;8.138;2022-09-19T00:14:14;11.20;99.90
33994;DHT22;20673;48.980;8.138;2022-09-19T00:16:44;11.10;99.90
33994;DHT22;20673;48.980;8.138;2022-09-19T00:19:15;11.10;99.90
33994;DHT22;20673;48.980;8.138;2022-09-19T00:21:44;10.90;99.90
33994;DHT22;20673;48.980;8.138;2022-09-19T00:24:15;10.90;99.90
33994;DHT22;20673;48.980;8.138;2022-09-19T00:27:02;10.80;99.90
33994;DHT22;20673;48.980;8.138;2022-09-19T00:29:32;10.70;99.90
33994;DHT22;20673;48.980;8.138;2022-09-19T00:32:00;10.60;99.90
33994;DHT22;20673;48.980;8.138;2022-09-19T00:34:27;10.60;99.90
33994;DHT22;20673;48.980;8.138;2022-09-19T00:36:55;10.60;99.90
33994;DHT22;20673;48.980;8.138;2022-09-19T00:39:21;10.50;99.90
33994;DHT22;20673;48.980;8.138;2022-09-19T00:41:47;10.50;99.90
33994;DHT22;20673;48.980;8.138;2022-09-19T00:49:33;10.10;99.90
33994;DHT22;20673;48.980;8.138;2022-09-19T00:52:07;9.90;99.90
33994;DHT22;20673;48.980;8.138;2022-09-19T00:54:41;9.80;99.90
33994;DHT22;20673;48.980;8.138;2022-09-19T00:57:11;9.70;99.90
33994;DHT22;20673;48.980;8.138;2022-09-19T00:59:43;9.70;99.90
33994;DHT22;20673;48.980;8.138;2022-09-19T01:02:15;9.80;99.90
33994;DHT22;20673;48.980;8.138;2022-09-19T01:04:45;9.80;99.90
33994;DHT22;20673;48.980;8.138;2022-09-19T01:07:32;9.60;99.90
33994;DHT22;20673;48.980;8.138;2022-09-19T01:10:18;9.60;99.90
33994;DHT22;20673;48.980;8.138;2022-09-19T01:18:41;9.40;99.90
33994;DHT22;20673;48.980;8.138;2022-09-19T01:21:19;9.30;99.90
33994;DHT22;20673;48.980;8.138;2022-09-19T01:24:21;9.20;99.90
33994;DHT22;20673;48.980;8.138;2022-09-19T01:30:16;9.00;99.90
33994;DHT22;20673;48.980;8.138;2022-09-19T01:32:55;8.90;99.90
33994;DHT22;20673;48.980;8.138;2022-09-19T01:35:33;8.80;99.90
33994;DHT22;20673;48.980;8.138;2022-09-19T01:38:11;8.70;99.90
33994;DHT22;20673;48.980;8.138;2022-09-19T01:40:41;8.60;99.90
33994;DHT22;20673;48.980;8.138;2022-09-19T01:43:14;8.60;99.90
33994;DHT22;20673;48.980;8.138;2022-09-19T01:45:42;8.60;99.90
33994;DHT22;20673;48.980;8.138;2022-09-19T01:54:09;8.40;99.90
33994;DHT22;20673;48.980;8.138;2022-09-19T01:56:48;8.50;99.90
33994;DHT22;20673;48.980;8.138;2022-09-19T02:04:32;8.50;99.90
33994;DHT22;20673;48.980;8.138;2022-09-19T02:07:24;8.40;99.90
33994;DHT22;20673;48.980;8.138;2022-09-19T02:10:02;8.40;99.90
33994;DHT22;20673;48.980;8.138;2022-09-19T02:12:36;8.40;99.90
33994;DHT22;20673;48.980;8.138;2022-09-19T02:15:42;8.40;99.90
33994;DHT22;20673;48.980;8.138;2022-09-19T02:18:15;8.40;99.90
33994;DHT22;20673;48.980;8.138;2022-09-19T02:20:48;8.40;99.90
33994;DHT22;20673;48.980;8.138;2022-09-19T02:23:22;8.60;99.90
33994;DHT22;20673;48.980;8.138;2022-09-19T02:25:51;8.60;99.90
33994;DHT22;20673;48.980;8.138;2022-09-19T02:28:23;8.70;99.90
33994;DHT22;20673;48.980;8.138;2022-09-19T02:30:52;8.70;99.90
33994;DHT22;20673;48.980;8.138;2022-09-19T02:33:19;8.90;99.90
33994;DHT22;20673;48.980;8.138;2022-09-19T02:35:49;9.00;99.90
33994;DHT22;20673;48.980;8.138;2022-09-19T02:41:33;9.20;99.90
33994;DHT22;20673;48.980;8.138;2022-09-19T02:44:13;9.10;99.90
33994;DHT22;20673;48.980;8.138;2022-09-19T02:46:56;9.10;99.90
33994;DHT22;20673;48.980;8.138;2022-09-19T02:49:37;9.10;99.90
33994;DHT22;20673;48.980;8.138;2022-09-19T02:52:13;9.10;99.90
33994;DHT22;20673;48.980;8.138;2022-09-19T02:54:48;9.30;99.90
33994;DHT22;20673;48.980;8.138;2022-09-19T02:57:18;9.50;99.90
33994;DHT22;20673;48.980;8.138;2022-09-19T02:59:49;9.50;99.90
33994;DHT22;20673;48.980;8.138;2022-09-19T03:02:23;9.50;99.90
33994;DHT22;20673;48.980;8.138;2022-09-19T03:05:08;9.50;99.90
33994;DHT22;20673;48.980;8.138;2022-09-19T03:07:56;9.50;99.90
33994;DHT22;20673;48.980;8.138;2022-09-19T03:10:30;9.40;99.90
33994;DHT22;20673;48.980;8.138;2022-09-19T03:12:59;9.30;99.90
33994;DHT22;20673;48.980;8.138;2022-09-19T03:15:36;9.10;99.90
33994;DHT22;20673;48.980;8.138;2022-09-19T03:18:08;9.10;99.90
33994;DHT22;20673;48.980;8.138;2022-09-19T03:20:40;8.90;99.90
33994;DHT22;20673;48.980;8.138;2022-09-19T03:23:14;8.80;99.90
33994;DHT22;20673;48.980;8.138;2022-09-19T03:25:43;8.70;99.90
33994;DHT22;20673;48.980;8.138;2022-09-19T03:28:10;8.60;99.90
33994;DHT22;20673;48.980;8.138;2022-09-19T03:30:36;8.40;99.90
33994;DHT22;20673;48.980;8.138;2022-09-19T03:33:02;8.30;99.90
33994;DHT22;20673;48.980;8.138;2022-09-19T03:35:28;8.20;99.90
33994;DHT22;20673;48.980;8.138;2022-09-19T03:37:54;8.30;99.90
33994;DHT22;20673;48.980;8.138;2022-09-19T03:40:21;8.30;99.90
33994;DHT22;20673;48.980;8.138;2022-09-19T03:42:48;8.50;99.90
33994;DHT22;20673;48.980;8.138;2022-09-19T03:45:16;8.50;99.90
33994;DHT22;20673;48.980;8.138;2022-09-19T03:47:42;8.60;99.90
33994;DHT22;20673;48.980;8.138;2022-09-19T03:50:08;8.70;99.90
33994;DHT22;20673;48.980;8.138;2022-09-19T03:52:34;8.50;99.90
33994;DHT22;20673;48.980;8.138;2022-09-19T03:55:00;8.60;99.90
33994;DHT22;20673;48.980;8.138;2022-09-19T03:57:27;8.60;99.90
33994;DHT22;20673;48.980;8.138;2022-09-19T03:59:53;8.60;99.90
33994;DHT22;20673;48.980;8.138;2022-09-19T04:02:19;8.60;99.90
33994;DHT22;20673;48.980;8.138;2022-09-19T04:04:45;8.60;99.90
33994;DHT22;20673;48.980;8.138;2022-09-19T04:07:11;8.60;99.90
33994;DHT22;20673;48.980;8.138;2022-09-19T04:09:38;8.60;99.90
33994;DHT22;20673;48.980;8.138;2022-09-19T04:12:04;8.60;99.90
33994;DHT22;20673;48.980;8.138;2022-09-19T04:14:30;8.60;99.90
33994;DHT22;20673;48.980;8.138;2022-09-19T04:16:56;8.50;99.90
33994;DHT22;20673;48.980;8.138;2022-09-19T04:19:23;8.50;99.90
33994;DHT22;20673;48.980;8.138;2022-09-19T04:21:51;8.40;99.90
33994;DHT22;20673;48.980;8.138;2022-09-19T04:24:18;8.30;99.90
33994;DHT22;20673;48.980;8.138;2022-09-19T04:26:46;8.20;99.90
33994;DHT22;20673;48.980;8.138;2022-09-19T04:29:12;8.20;99.90
33994;DHT22;20673;48.980;8.138;2022-09-19T04:31:39;8.20;99.90
33994;DHT22;20673;48.980;8.138;2022-09-19T04:34:06;8.10;99.90
33994;DHT22;20673;48.980;8.138;2022-09-19T04:36:34;8.00;99.90
33994;DHT22;20673;48.980;8.138;2022-09-19T04:39:01;8.10;99.90
33994;DHT22;20673;48.980;8.138;2022-09-19T04:41:33;8.20;99.90
33994;DHT22;20673;48.980;8.138;2022-09-19T04:44:01;8.30;99.90
33994;DHT22;20673;48.980;8.138;2022-09-19T04:46:29;8.20;99.90
33994;DHT22;20673;48.980;8.138;2022-09-19T04:48:58;8.30;99.90
33994;DHT22;20673;48.980;8.138;2022-09-19T04:51:26;8.30;99.90
33994;DHT22;20673;48.980;8.138;2022-09-19T04:53:54;8.30;99.90
33994;DHT22;20673;48.980;8.138;2022-09-19T04:56:20;8.20;99.90
33994;DHT22;20673;48.980;8.138;2022-09-19T04:58:47;8.10;99.90
33994;DHT22;20673;48.980;8.138;2022-09-19T05:01:13;8.10;99.90
33994;DHT22;20673;48.980;8.138;2022-09-19T05:03:40;8.10;99.90
33994;DHT22;20673;48.980;8.138;2022-09-19T05:06:12;8.10;99.90
33994;DHT22;20673;48.980;8.138;2022-09-19T05:08:38;8.00;99.90
33994;DHT22;20673;48.980;8.138;2022-09-19T05:11:07;8.00;99.90
33994;DHT22;20673;48.980;8.138;2022-09-19T05:13:36;7.90;99.90
33994;DHT22;20673;48.980;8.138;2022-09-19T05:16:07;7.90;99.90
33994;DHT22;20673;48.980;8.138;2022-09-19T05:18:34;7.90;99.90
33994;DHT22;20673;48.980;8.138;2022-09-19T05:21:04;7.90;99.90
33994;DHT22;20673;48.980;8.138;2022-09-19T05:23:33;7.90;99.90
33994;DHT22;20673;48.980;8.138;2022-09-19T05:26:09;7.90;99.90
33994;DHT22;20673;48.980;8.138;2022-09-19T05:28:34;7.90;99.90
33994;DHT22;20673;48.980;8.138;2022-09-19T05:31:01;7.80;99.90
33994;DHT22;20673;48.980;8.138;2022-09-19T05:33:30;7.80;99.90
33994;DHT22;20673;48.980;8.138;2022-09-19T05:35:58;7.80;99.90
33994;DHT22;20673;48.980;8.138;2022-09-19T05:38:26;7.90;99.90
33994;DHT22;20673;48.980;8.138;2022-09-19T05:40:55;8.00;99.90
33994;DHT22;20673;48.980;8.138;2022-09-19T05:43:22;8.10;99.90
33994;DHT22;20673;48.980;8.138;2022-09-19T05:45:50;8.20;99.90
33994;DHT22;20673;48.980;8.138;2022-09-19T05:48:18;8.30;99.90
33994;DHT22;20673;48.980;8.138;2022-09-19T05:50:46;8.40;99.90
33994;DHT22;20673;48.980;8.138;2022-09-19T05:53:14;8.60;99.90
33994;DHT22;20673;48.980;8.138;2022-09-19T05:56:01;8.70;99.90
33994;DHT22;20673;48.980;8.138;2022-09-19T05:58:29;8.70;99.90
33994;DHT22;20673;48.980;8.138;2022-09-19T06:00:55;8.80;99.90
33994;DHT22;20673;48.980;8.138;2022-09-19T06:03:21;9.00;99.90
33994;DHT22;20673;48.980;8.138;2022-09-19T06:05:50;8.90;99.90
33994;DHT22;20673;48.980;8.138;2022-09-19T06:08:19;9.00;99.90
33994;DHT22;20673;48.980;8.138;2022-09-19T06:10:48;9.00;99.90
33994;DHT22;20673;48.980;8.138;2022-09-19T06:13:17;9.10;99.90
33994;DHT22;20673;48.980;8.138;2022-09-19T06:15:45;9.20;99.90
33994;DHT22;20673;48.980;8.138;2022-09-19T06:18:12;9.30;99.90
33994;DHT22;20673;48.980;8.138;2022-09-19T06:20:39;9.40;99.90
33994;DHT22;20673;48.980;8.138;2022-09-19T06:23:08;9.50;99.90
33994;DHT22;20673;48.980;8.138;2022-09-19T06:25:37;9.60;99.90
33994;DHT22;20673;48.980;8.138;2022-09-19T06:28:10;9.60;99.90
33994;DHT22;20673;48.980;8.138;2022-09-19T06:30:37;9.70;99.90
33994;DHT22;20673;48.980;8.138;2022-09-19T06:33:05;9.60;99.90
33994;DHT22;20673;48.980;8.138;2022-09-19T06:35:34;9.80;99.90
33994;DHT22;20673;48.980;8.138;2022-09-19T06:38:02;9.90;99.90
33994;DHT22;20673;48.980;8.138;2022-09-19T06:40:31;10.00;99.90
33994;DHT22;20673;48.980;8.138;2022-09-19T06:43:00;10.00;99.90
33994;DHT22;20673;48.980;8.138;2022-09-19T06:45:32;10.20;99.90
33994;DHT22;20673;48.980;8.138;2022-09-19T06:48:02;10.30;99.90
33994;DHT22;20673;48.980;8.138;2022-09-19T06:50:28;10.30;99.90
33994;DHT22;20673;48.980;8.138;2022-09-19T06:52:55;10.30;99.90
33994;DHT22;20673;48.980;8.138;2022-09-19T06:55:22;10.40;99.90
33994;DHT22;20673;48.980;8.138;2022-09-19T06:57:59;10.40;99.90
33994;DHT22;20673;48.980;8.138;2022-09-19T07:00:29;10.40;99.90
33994;DHT22;20673;48.980;8.138;2022-09-19T07:03:06;10.50;99.90
33994;DHT22;20673;48.980;8.138;2022-09-19T07:05:39;10.50;99.90
33994;DHT22;20673;48.980;8.138;2022-09-19T07:08:11;10.70;99.90
33994;DHT22;20673;48.980;8.138;2022-09-19T07:10:43;10.70;99.90
33994;DHT22;20673;48.980;8.138;2022-09-19T07:13:11;10.80;99.90
33994;DHT22;20673;48.980;8.138;2022-09-19T07:15:41;10.80;99.90
33994;DHT22;20673;48.980;8.138;2022-09-19T07:18:08;10.70;99.90
33994;DHT22;20673;48.980;8.138;2022-09-19T07:20:37;10.80;99.90
33994;DHT22;20673;48.980;8.138;2022-09-19T07:23:11;10.90;99.90
33994;DHT22;20673;48.980;8.138;2022-09-19T07:25:41;10.90;99.90
33994;DHT22;20673;48.980;8.138;2022-09-19T07:28:11;11.00;99.90
33994;DHT22;20673;48.980;8.138;2022-09-19T07:30:40;11.00;99.90
33994;DHT22;20673;48.980;8.138;2022-09-19T07:33:10;11.00;99.90
33994;DHT22;20673;48.980;8.138;2022-09-19T07:35:38;11.00;99.90
33994;DHT22;20673;48.980;8.138;2022-09-19T07:38:16;11.10;99.90
33994;DHT22;20673;48.980;8.138;2022-09-19T07:40:41;11.20;99.90
33994;DHT22;20673;48.980;8.138;2022-09-19T07:43:09;11.30;99.90
33994;DHT22;20673;48.980;8.138;2022-09-19T07:45:42;11.30;99.90
33994;DHT22;20673;48.980;8.138;2022-09-19T07:48:14;11.50;99.90
33994;DHT22;20673;48.980;8.138;2022-09-19T07:50:41;11.70;99.90
33994;DHT22;20673;48.980;8.138;2022-09-19T07:53:17;11.80;99.90
33994;DHT22;20673;48.980;8.138;2022-09-19T07:55:51;11.80;99.90
33994;DHT22;20673;48.980;8.138;2022-09-19T07:58:24;11.90;99.90
33994;DHT22;20673;48.980;8.138;2022-09-19T08:00:49;12.10;99.90
33994;DHT22;20673;48.980;8.138;2022-09-19T08:03:18;12.30;99.90
33994;DHT22;20673;48.980;8.138;2022-09-19T08:05:48;12.40;99.90
33994;DHT22;20673;48.980;8.138;2022-09-19T08:08:17;12.50;99.90
33994;DHT22;20673;48.980;8.138;2022-09-19T08:10:45;12.60;99.90
33994;DHT22;20673;48.980;8.138;2022-09-19T08:13:13;12.60;99.90
33994;DHT22;20673;48.980;8.138;2022-09-19T08:15:42;12.60;99.90
33994;DHT22;20673;48.980;8.138;2022-09-19T08:18:18;12.60;99.90
33994;DHT22;20673;48.980;8.138;2022-09-19T08:20:45;12.60;99.90
33994;DHT22;20673;48.980;8.138;2022-09-19T08:23:14;12.70;99.90
33994;DHT22;20673;48.980;8.138;2022-09-19T08:25:43;12.80;99.90
33994;DHT22;20673;48.980;8.138;2022-09-19T08:28:15;12.90;99.90
33994;DHT22;20673;48.980;8.138;2022-09-19T08:30:48;13.00;99.90
33994;DHT22;20673;48.980;8.138;2022-09-19T08:33:16;12.90;99.90
33994;DHT22;20673;48.980;8.138;2022-09-19T08:35:43;12.90;99.90
33994;DHT22;20673;48.980;8.138;2022-09-19T08:38:11;13.20;99.90
33994;DHT22;20673;48.980;8.138;2022-09-19T08:52:05;13.80;99.90
33994;DHT22;20673;48.980;8.138;2022-09-19T08:57:15;13.80;99.90
33994;DHT22;20673;48.980;8.138;2022-09-19T08:59:54;13.90;99.90
33994;DHT22;20673;48.980;8.138;2022-09-19T09:05:14;13.60;99.90
33994;DHT22;20673;48.980;8.138;2022-09-19T09:07:57;13.60;99.90
33994;DHT22;20673;48.980;8.138;2022-09-19T09:10:58;13.50;99.90
33994;DHT22;20673;48.980;8.138;2022-09-19T09:13:33;13.60;99.90
33994;DHT22;20673;48.980;8.138;2022-09-19T09:18:57;13.60;99.90
33994;DHT22;20673;48.980;8.138;2022-09-19T09:24:22;13.60;99.90
33994;DHT22;20673;48.980;8.138;2022-09-19T09:26:54;13.60;99.90
33994;DHT22;20673;48.980;8.138;2022-09-19T09:29:24;13.60;99.90
33994;DHT22;20673;48.980;8.138;2022-09-19T09:32:04;13.70;99.90
33994;DHT22;20673;48.980;8.138;2022-09-19T09:37:26;14.00;99.90
33994;DHT22;20673;48.980;8.138;2022-09-19T09:40:03;14.10;99.90
33994;DHT22;20673;48.980;8.138;2022-09-19T09:51:15;15.90;99.90
33994;DHT22;20673;48.980;8.138;2022-09-19T09:56:49;16.70;99.90
33994;DHT22;20673;48.980;8.138;2022-09-19T10:05:55;15.90;99.90
33994;DHT22;20673;48.980;8.138;2022-09-19T10:08:28;15.80;99.90
33994;DHT22;20673;48.980;8.138;2022-09-19T10:13:52;15.80;99.90
33994;DHT22;20673;48.980;8.138;2022-09-19T10:16:20;16.30;99.90
33994;DHT22;20673;48.980;8.138;2022-09-19T10:18:51;16.40;99.90
33994;DHT22;20673;48.980;8.138;2022-09-19T10:21:21;16.40;99.90
33994;DHT22;20673;48.980;8.138;2022-09-19T10:23:47;16.30;99.90
33994;DHT22;20673;48.980;8.138;2022-09-19T10:26:15;16.30;99.90
33994;DHT22;20673;48.980;8.138;2022-09-19T10:28:50;16.20;99.90
33994;DHT22;20673;48.980;8.138;2022-09-19T10:31:29;16.20;99.90
33994;DHT22;20673;48.980;8.138;2022-09-19T10:34:04;16.70;99.90
33994;DHT22;20673;48.980;8.138;2022-09-19T10:36:53;16.80;99.90
33994;DHT22;20673;48.980;8.138;2022-09-19T10:39:22;16.70;99.90
33994;DHT22;20673;48.980;8.138;2022-09-19T10:41:49;16.60;99.90
33994;DHT22;20673;48.980;8.138;2022-09-19T10:44:23;16.70;99.90
33994;DHT22;20673;48.980;8.138;2022-09-19T10:46:55;16.60;99.90
33994;DHT22;20673;48.980;8.138;2022-09-19T10:49:26;16.50;99.90
33994;DHT22;20673;48.980;8.138;2022-09-19T10:51:58;16.30;99.90
33994;DHT22;20673;48.980;8.138;2022-09-19T10:54:34;16.00;99.90
33994;DHT22;20673;48.980;8.138;2022-09-19T10:59:38;15.90;99.90
33994;DHT22;20673;48.980;8.138;2022-09-19T11:02:17;15.80;99.90
33994;DHT22;20673;48.980;8.138;2022-09-19T11:04:57;15.80;99.90
33994;DHT22;20673;48.980;8.138;2022-09-19T11:07:47;15.70;99.90
33994;DHT22;20673;48.980;8.138;2022-09-19T11:10:36;15.70;99.90
33994;DHT22;20673;48.980;8.138;2022-09-19T11:13:12;15.70;99.90
33994;DHT22;20673;48.980;8.138;2022-09-19T11:22:01;16.00;99.90
33994;DHT22;20673;48.980;8.138;2022-09-19T11:24:39;15.90;99.90
33994;DHT22;20673;48.980;8.138;2022-09-19T11:30:22;15.40;99.90
33994;DHT22;20673;48.980;8.138;2022-09-19T11:38:36;16.20;99.90
33994;DHT22;20673;48.980;8.138;2022-09-19T11:50:11;18.20;99.90
33994;DHT22;20673;48.980;8.138;2022-09-19T11:59:01;18.10;99.90
33994;DHT22;20673;48.980;8.138;2022-09-19T12:12:57;17.20;99.90
33994;DHT22;20673;48.980;8.138;2022-09-19T12:15:29;16.90;99.90
33994;DHT22;20673;48.980;8.138;2022-09-19T12:20:51;17.60;99.90
33994;DHT22;20673;48.980;8.138;2022-09-19T12:23:44;17.50;99.90
33994;DHT22;20673;48.980;8.138;2022-09-19T12:32:06;16.60;99.90
33994;DHT22;20673;48.980;8.138;2022-09-19T12:34:49;16.30;99.90
33994;DHT22;20673;48.980;8.138;2022-09-19T12:37:24;16.20;99.90
33994;DHT22;20673;48.980;8.138;2022-09-19T12:42:32;17.00;99.90
33994;DHT22;20673;48.980;8.138;2022-09-19T12:45:21;17.90;99.90
33994;DHT22;20673;48.980;8.138;2022-09-19T12:50:55;18.90;99.90
33994;DHT22;20673;48.980;8.138;2022-09-19T12:53:39;18.50;99.90
33994;DHT22;20673;48.980;8.138;2022-09-19T12:56:23;18.40;99.90
33994;DHT22;20673;48.980;8.138;2022-09-19T12:59:16;19.00;99.90
33994;DHT22;20673;48.980;8.138;2022-09-19T13:01:46;19.30;99.90
33994;DHT22;20673;48.980;8.138;2022-09-19T13:09:51;17.60;99.90
33994;DHT22;20673;48.980;8.138;2022-09-19T13:18:15;18.00;99.90
33994;DHT22;20673;48.980;8.138;2022-09-19T13:21:01;18.90;99.90
33994;DHT22;20673;48.980;8.138;2022-09-19T13:23:57;19.70;99.90
33994;DHT22;20673;48.980;8.138;2022-09-19T13:26:26;20.40;99.90
33994;DHT22;20673;48.980;8.138;2022-09-19T13:29:08;20.60;99.90
33994;DHT22;20673;48.980;8.138;2022-09-19T13:31:57;21.00;99.90
33994;DHT22;20673;48.980;8.138;2022-09-19T13:40:14;22.50;99.90
33994;DHT22;20673;48.980;8.138;2022-09-19T13:59:32;19.40;99.90
33994;DHT22;20673;48.980;8.138;2022-09-19T14:02:19;19.00;99.90
33994;DHT22;20673;48.980;8.138;2022-09-19T14:05:01;18.50;99.90
33994;DHT22;20673;48.980;8.138;2022-09-19T14:07:55;18.30;99.90
33994;DHT22;20673;48.980;8.138;2022-09-19T14:16:04;17.80;99.90
33994;DHT22;20673;48.980;8.138;2022-09-19T14:24:15;17.60;99.90
33994;DHT22;20673;48.980;8.138;2022-09-19T14:32:59;17.10;99.90
33994;DHT22;20673;48.980;8.138;2022-09-19T14:35:34;16.80;99.90
33994;DHT22;20673;48.980;8.138;2022-09-19T14:38:43;16.70;99.90
33994;DHT22;20673;48.980;8.138;2022-09-19T14:47:24;17.00;99.90
33994;DHT22;20673;48.980;8.138;2022-09-19T14:50:19;17.10;99.90
33994;DHT22;20673;48.980;8.138;2022-09-19T14:52:53;17.20;99.90
33994;DHT22;20673;48.980;8.138;2022-09-19T14:55:35;17.10;99.90
33994;DHT22;20673;48.980;8.138;2022-09-19T14:58:30;16.90;99.90
33994;DHT22;20673;48.980;8.138;2022-09-19T15:01:06;16.80;99.90
33994;DHT22;20673;48.980;8.138;2022-09-19T15:03:57;16.80;99.90
33994;DHT22;20673;48.980;8.138;2022-09-19T15:06:33;17.10;99.90
33994;DHT22;20673;48.980;8.138;2022-09-19T15:09:03;18.10;99.90
33994;DHT22;20673;48.980;8.138;2022-09-19T15:11:29;18.80;99.90
33994;DHT22;20673;48.980;8.138;2022-09-19T15:13:56;19.40;99.90
33994;DHT22;20673;48.980;8.138;2022-09-19T15:16:24;19.70;99.90
33994;DHT22;20673;48.980;8.138;2022-09-19T15:18:55;20.20;99.90
33994;DHT22;20673;48.980;8.138;2022-09-19T15:21:25;20.20;99.90
33994;DHT22;20673;48.980;8.138;2022-09-19T15:23:56;20.20;99.90
33994;DHT22;20673;48.980;8.138;2022-09-19T15:26:27;20.20;99.90
33994;DHT22;20673;48.980;8.138;2022-09-19T15:28:59;20.30;99.90
33994;DHT22;20673;48.980;8.138;2022-09-19T15:31:32;20.60;99.90
33994;DHT22;20673;48.980;8.138;2022-09-19T15:36:33;20.80;99.90
33994;DHT22;20673;48.980;8.138;2022-09-19T15:39:03;20.60;99.90
33994;DHT22;20673;48.980;8.138;2022-09-19T15:41:31;20.60;99.90
33994;DHT22;20673;48.980;8.138;2022-09-19T15:43:59;20.80;99.90
33994;DHT22;20673;48.980;8.138;2022-09-19T15:49:04;20.90;99.90
33994;DHT22;20673;48.980;8.138;2022-09-19T15:51:38;21.10;99.90
33994;DHT22;20673;48.980;8.138;2022-09-19T15:54:15;21.00;99.90
33994;DHT22;20673;48.980;8.138;2022-09-19T15:56:45;21.10;99.90
33994;DHT22;20673;48.980;8.138;2022-09-19T15:59:24;21.20;99.90
33994;DHT22;20673;48.980;8.138;2022-09-19T16:01:51;21.30;99.90
33994;DHT22;20673;48.980;8.138;2022-09-19T16:04:21;21.30;99.90
33994;DHT22;20673;48.980;8.138;2022-09-19T16:09:48;21.20;99.90
33994;DHT22;20673;48.980;8.138;2022-09-19T16:14:58;20.50;99.90
33994;DHT22;20673;48.980;8.138;2022-09-19T16:23:12;18.40;99.90
33994;DHT22;20673;48.980;8.138;2022-09-19T16:25:53;17.70;99.90
33994;DHT22;20673;48.980;8.138;2022-09-19T16:36:44;16.90;99.90
33994;DHT22;20673;48.980;8.138;2022-09-19T16:39:20;16.60;99.90
33994;DHT22;20673;48.980;8.138;2022-09-19T16:41:57;16.50;99.90
33994;DHT22;20673;48.980;8.138;2022-09-19T16:44:35;16.30;99.90
33994;DHT22;20673;48.980;8.138;2022-09-19T16:47:23;16.10;99.90
33994;DHT22;20673;48.980;8.138;2022-09-19T16:49:49;15.90;99.90
33994;DHT22;20673;48.980;8.138;2022-09-19T16:54:58;15.70;99.90
33994;DHT22;20673;48.980;8.138;2022-09-19T16:57:28;15.50;99.90
33994;DHT22;20673;48.980;8.138;2022-09-19T16:59:55;15.40;99.90
33994;DHT22;20673;48.980;8.138;2022-09-19T17:02:24;15.40;99.90
33994;DHT22;20673;48.980;8.138;2022-09-19T17:04:52;15.30;99.90
33994;DHT22;20673;48.980;8.138;2022-09-19T17:07:20;15.20;99.90
33994;DHT22;20673;48.980;8.138;2022-09-19T17:09:48;15.00;99.90
33994;DHT22;20673;48.980;8.138;2022-09-19T17:12:16;14.80;99.90
33994;DHT22;20673;48.980;8.138;2022-09-19T17:14:45;14.50;99.90
33994;DHT22;20673;48.980;8.138;2022-09-19T17:17:13;14.30;99.90
33994;DHT22;20673;48.980;8.138;2022-09-19T17:19:43;14.20;99.90
33994;DHT22;20673;48.980;8.138;2022-09-19T17:22:16;14.00;99.90
33994;DHT22;20673;48.980;8.138;2022-09-19T17:24:44;13.80;99.90
33994;DHT22;20673;48.980;8.138;2022-09-19T17:27:11;13.70;99.90
33994;DHT22;20673;48.980;8.138;2022-09-19T17:29:38;13.50;99.90
33994;DHT22;20673;48.980;8.138;2022-09-19T17:32:06;13.30;99.90
33994;DHT22;20673;48.980;8.138;2022-09-19T17:34:34;13.20;99.90
33994;DHT22;20673;48.980;8.138;2022-09-19T17:37:01;13.00;99.90
33994;DHT22;20673;48.980;8.138;2022-09-19T17:39:27;12.90;99.90
33994;DHT22;20673;48.980;8.138;2022-09-19T17:41:53;12.70;99.90
33994;DHT22;20673;48.980;8.138;2022-09-19T17:44:19;12.60;99.90
33994;DHT22;20673;48.980;8.138;2022-09-19T17:46:46;12.50;99.90
33994;DHT22;20673;48.980;8.138;2022-09-19T17:49:12;12.40;99.90
33994;DHT22;20673;48.980;8.138;2022-09-19T17:51:38;12.30;99.90
33994;DHT22;20673;48.980;8.138;2022-09-19T17:54:04;12.10;99.90
33994;DHT22;20673;48.980;8.138;2022-09-19T17:56:31;12.00;99.90
33994;DHT22;20673;48.980;8.138;2022-09-19T17:58:59;11.90;99.90
33994;DHT22;20673;48.980;8.138;2022-09-19T18:01:28;11.80;99.90
33994;DHT22;20673;48.980;8.138;2022-09-19T18:04:13;11.70;99.90
33994;DHT22;20673;48.980;8.138;2022-09-19T18:06:40;11.70;99.90
33994;DHT22;20673;48.980;8.138;2022-09-19T18:09:09;11.50;99.90
33994;DHT22;20673;48.980;8.138;2022-09-19T18:11:37;11.40;99.90
33994;DHT22;20673;48.980;8.138;2022-09-19T18:14:04;11.30;99.90
33994;DHT22;20673;48.980;8.138;2022-09-19T18:16:32;11.20;99.90
33994;DHT22;20673;48.980;8.138;2022-09-19T18:19:02;11.10;99.90
33994;DHT22;20673;48.980;8.138;2022-09-19T18:21:29;11.00;99.90
33994;DHT22;20673;48.980;8.138;2022-09-19T18:23:55;11.00;99.90
33994;DHT22;20673;48.980;8.138;2022-09-19T18:26:22;10.90;99.90
33994;DHT22;20673;48.980;8.138;2022-09-19T18:28:57;10.80;99.90
33994;DHT22;20673;48.980;8.138;2022-09-19T18:31:23;10.70;99.90
33994;DHT22;20673;48.980;8.138;2022-09-19T18:33:50;10.60;99.90
33994;DHT22;20673;48.980;8.138;2022-09-19T18:36:22;10.60;99.90
33994;DHT22;20673;48.980;8.138;2022-09-19T18:38:49;10.50;99.90
33994;DHT22;20673;48.980;8.138;2022-09-19T18:41:20;10.40;99.90
33994;DHT22;20673;48.980;8.138;2022-09-19T18:43:49;10.40;99.90
33994;DHT22;20673;48.980;8.138;2022-09-19T18:46:17;10.40;99.90
33994;DHT22;20673;48.980;8.138;2022-09-19T18:48:46;10.30;99.90
33994;DHT22;20673;48.980;8.138;2022-09-19T18:51:15;10.30;99.90
33994;DHT22;20673;48.980;8.138;2022-09-19T18:53:44;10.20;99.90
33994;DHT22;20673;48.980;8.138;2022-09-19T18:56:12;10.20;99.90
33994;DHT22;20673;48.980;8.138;2022-09-19T18:58:39;10.20;99.90
33994;DHT22;20673;48.980;8.138;2022-09-19T19:01:10;10.10;99.90
33994;DHT22;20673;48.980;8.138;2022-09-19T19:03:40;10.10;99.90
33994;DHT22;20673;48.980;8.138;2022-09-19T19:06:11;10.00;99.90
33994;DHT22;20673;48.980;8.138;2022-09-19T19:08:39;10.00;99.90
33994;DHT22;20673;48.980;8.138;2022-09-19T19:11:13;10.00;99.90
33994;DHT22;20673;48.980;8.138;2022-09-19T19:13:39;10.10;99.90
33994;DHT22;20673;48.980;8.138;2022-09-19T19:16:07;10.10;99.90
33994;DHT22;20673;48.980;8.138;2022-09-19T19:18:36;10.10;99.90
33994;DHT22;20673;48.980;8.138;2022-09-19T19:21:08;10.10;99.90
33994;DHT22;20673;48.980;8.138;2022-09-19T19:23:37;10.00;99.90
33994;DHT22;20673;48.980;8.138;2022-09-19T19:26:05;10.00;99.90
33994;DHT22;20673;48.980;8.138;2022-09-19T19:28:32;10.00;99.90
33994;DHT22;20673;48.980;8.138;2022-09-19T19:30:59;9.90;99.90
33994;DHT22;20673;48.980;8.138;2022-09-19T19:33:26;9.90;99.90
33994;DHT22;20673;48.980;8.138;2022-09-19T19:38:31;9.80;99.90
33994;DHT22;20673;48.980;8.138;2022-09-19T19:41:01;9.90;99.90
33994;DHT22;20673;48.980;8.138;2022-09-19T19:43:30;10.00;99.90
33994;DHT22;20673;48.980;8.138;2022-09-19T19:45:58;9.80;99.90